Aérodrome :
LOGIN :

S'inscrire | Disclaimer

   EN    FR    IT 

 










Légende :    VFR   VFR Marginal   IFR   IFR Intensif   IFR Très Intensif
Visi : 
Plafond : 
>= 8 km
>= 3000ft
5 à 8 km
1000 à 3000 ft
1500m à 5 km
500 à 1000 ft
800 à 1500m
200 à 500 ft
< 800m
< 200 ft
Symboles :   Orages  Brouillard  Fortes neiges  Fortes précipitations  Vent > 20 kt
SIGMETs :   Divers  Orages  Givrage  Turbulence  Onde Orograph.  Cendres Volcan.






- Altitude de l'aérodrome : 424 ft
- Code IATA : QGY


LHPR - Györ Per

DERNIER METAR :
  • 020445Z AUTO VRB01KT 2700 BR FEW049 04/04 Q1009

METARs EXPIRÉS :
  • 020415Z AUTO VRB01KT 3000 BR NSC 04/04 Q1009
  • 012045Z AUTO 08005KT 8000 NSC 08/07 Q1009
  • 020345Z AUTO 12003KT 1800 BR SCT012 OVC060 03/03 Q1009
  • 020315Z AUTO VRB01KT 5000 BR FEW001 BKN006 02/02 Q1009
  • 020245Z AUTO 00000KT 0700 R29/0750N FG SCT020 02/02 Q1009
  • 020215Z AUTO VRB02KT 0350 R29/0400N FG FEW008 OVC019 02/02 Q1009
  • 020145Z AUTO 09003KT 0400 R29/0500N FG VV004 01/01 Q1009
  • 020115Z AUTO 07003KT 020V080 0400 R29/0450D FG OVC025 02/02 Q1009
  • 020045Z AUTO 25001KT 0350 R29/0500U FG BKN018 03/03 Q1009
  • 020015Z AUTO 00000KT 0450 R29/0500N FG BKN019 02/02 Q1009

TAF TAF LHPR
Valide du 02 à 03h jusqu'au 02 à 12h UTC


020215Z 0203/0212 VRB03KT 3000 BR SCT002
TEMPO 0203/0206 0200 FG VV001
BECMG 0206/0209 9999 NSW SCT020 BKN080



MET'MAP, la Météo Aéronautique d'un coup d'oeil ! - Copyright ORBIFLY Décembre 2007 - Disclaimer

ORBIFLY MET'MAP TEAM :

Programmation & Développement : Alexandra Zaïnal
Sur une idée originale de : Baudouin d'Aumeries
Soutien technique & logistique : Manuel Goepfert
Assistance : Marc-Olivier Méhu




SOURCES & CREDITS :

   NOAA